sensor_id;sensor_type;location;lat;lon;timestamp;P1;durP1;ratioP1;P2;durP2;ratioP2
74180;SDS011;62544;50.826;14.354;2022-09-02T00:00:11;2.05;;;1.74;;
74180;SDS011;62544;50.826;14.354;2022-09-02T00:04:17;1.67;;;1.51;;
74180;SDS011;62544;50.826;14.354;2022-09-02T00:08:14;1.67;;;1.51;;
74180;SDS011;62544;50.826;14.354;2022-09-02T00:12:16;1.67;;;1.51;;
74180;SDS011;62544;50.826;14.354;2022-09-02T00:16:19;2.49;;;1.63;;
74180;SDS011;62544;50.826;14.354;2022-09-02T00:20:20;2.49;;;1.63;;
74180;SDS011;62544;50.826;14.354;2022-09-02T00:24:22;2.20;;;1.75;;
74180;SDS011;62544;50.826;14.354;2022-09-02T00:28:24;2.20;;;1.75;;
74180;SDS011;62544;50.826;14.354;2022-09-02T00:32:26;2.20;;;1.75;;
74180;SDS011;62544;50.826;14.354;2022-09-02T00:36:28;3.13;;;1.84;;
74180;SDS011;62544;50.826;14.354;2022-09-02T00:40:31;3.13;;;1.84;;
74180;SDS011;62544;50.826;14.354;2022-09-02T00:44:32;2.21;;;1.76;;
74180;SDS011;62544;50.826;14.354;2022-09-02T00:48:35;2.21;;;1.76;;
74180;SDS011;62544;50.826;14.354;2022-09-02T00:52:39;1.88;;;1.69;;
74180;SDS011;62544;50.826;14.354;2022-09-02T00:56:39;1.88;;;1.69;;
74180;SDS011;62544;50.826;14.354;2022-09-02T01:00:41;1.88;;;1.69;;
74180;SDS011;62544;50.826;14.354;2022-09-02T01:04:42;3.18;;;2.23;;
74180;SDS011;62544;50.826;14.354;2022-09-02T01:08:45;3.18;;;2.23;;
74180;SDS011;62544;50.826;14.354;2022-09-02T01:12:46;2.81;;;1.88;;
74180;SDS011;62544;50.826;14.354;2022-09-02T01:16:50;2.81;;;1.88;;
74180;SDS011;62544;50.826;14.354;2022-09-02T01:20:50;2.81;;;1.88;;
74180;SDS011;62544;50.826;14.354;2022-09-02T01:24:53;1.94;;;1.61;;
74180;SDS011;62544;50.826;14.354;2022-09-02T01:28:54;1.94;;;1.61;;
74180;SDS011;62544;50.826;14.354;2022-09-02T01:32:56;2.00;;;1.48;;
74180;SDS011;62544;50.826;14.354;2022-09-02T01:36:58;2.00;;;1.48;;
74180;SDS011;62544;50.826;14.354;2022-09-02T01:41:00;2.00;;;1.48;;
74180;SDS011;62544;50.826;14.354;2022-09-02T01:45:03;2.09;;;1.80;;
74180;SDS011;62544;50.826;14.354;2022-09-02T01:49:04;2.09;;;1.80;;
74180;SDS011;62544;50.826;14.354;2022-09-02T01:53:06;3.15;;;2.31;;
74180;SDS011;62544;50.826;14.354;2022-09-02T01:57:09;3.15;;;2.31;;
74180;SDS011;62544;50.826;14.354;2022-09-02T02:01:10;3.15;;;2.31;;
74180;SDS011;62544;50.826;14.354;2022-09-02T02:05:12;2.65;;;1.98;;
74180;SDS011;62544;50.826;14.354;2022-09-02T02:09:14;2.65;;;1.98;;
74180;SDS011;62544;50.826;14.354;2022-09-02T02:13:16;2.89;;;2.23;;
74180;SDS011;62544;50.826;14.354;2022-09-02T02:17:18;2.89;;;2.23;;
74180;SDS011;62544;50.826;14.354;2022-09-02T02:21:20;2.89;;;2.23;;
74180;SDS011;62544;50.826;14.354;2022-09-02T02:25:22;3.25;;;2.46;;
74180;SDS011;62544;50.826;14.354;2022-09-02T02:29:24;3.25;;;2.46;;
74180;SDS011;62544;50.826;14.354;2022-09-02T02:33:26;4.41;;;3.33;;
74180;SDS011;62544;50.826;14.354;2022-09-02T02:37:28;4.41;;;3.33;;
74180;SDS011;62544;50.826;14.354;2022-09-02T02:41:30;4.41;;;3.33;;
74180;SDS011;62544;50.826;14.354;2022-09-02T02:45:32;2.49;;;2.26;;
74180;SDS011;62544;50.826;14.354;2022-09-02T02:49:40;2.49;;;2.26;;
74180;SDS011;62544;50.826;14.354;2022-09-02T02:53:36;2.13;;;1.93;;
74180;SDS011;62544;50.826;14.354;2022-09-02T02:57:38;2.13;;;1.93;;
74180;SDS011;62544;50.826;14.354;2022-09-02T03:01:40;2.13;;;1.93;;
74180;SDS011;62544;50.826;14.354;2022-09-02T03:05:42;2.57;;;2.17;;
74180;SDS011;62544;50.826;14.354;2022-09-02T03:09:44;2.57;;;2.17;;
74180;SDS011;62544;50.826;14.354;2022-09-02T03:13:47;2.67;;;2.41;;
74180;SDS011;62544;50.826;14.354;2022-09-02T03:17:48;2.67;;;2.41;;
74180;SDS011;62544;50.826;14.354;2022-09-02T03:21:50;2.67;;;2.41;;
74180;SDS011;62544;50.826;14.354;2022-09-02T03:25:52;3.22;;;2.90;;
74180;SDS011;62544;50.826;14.354;2022-09-02T03:29:54;3.22;;;2.90;;
74180;SDS011;62544;50.826;14.354;2022-09-02T03:33:56;3.31;;;2.75;;
74180;SDS011;62544;50.826;14.354;2022-09-02T03:37:59;3.31;;;2.75;;
74180;SDS011;62544;50.826;14.354;2022-09-02T03:42:00;3.31;;;2.75;;
74180;SDS011;62544;50.826;14.354;2022-09-02T03:46:02;4.08;;;3.00;;
74180;SDS011;62544;50.826;14.354;2022-09-02T03:50:04;4.08;;;3.00;;
74180;SDS011;62544;50.826;14.354;2022-09-02T03:54:06;2.72;;;2.42;;
74180;SDS011;62544;50.826;14.354;2022-09-02T03:58:08;2.72;;;2.42;;
74180;SDS011;62544;50.826;14.354;2022-09-02T04:02:10;2.72;;;2.42;;
74180;SDS011;62544;50.826;14.354;2022-09-02T04:06:13;2.73;;;2.41;;
74180;SDS011;62544;50.826;14.354;2022-09-02T04:10:14;2.73;;;2.41;;
74180;SDS011;62544;50.826;14.354;2022-09-02T04:14:16;2.81;;;2.46;;
74180;SDS011;62544;50.826;14.354;2022-09-02T04:18:18;2.81;;;2.46;;
74180;SDS011;62544;50.826;14.354;2022-09-02T04:22:20;2.81;;;2.46;;
74180;SDS011;62544;50.826;14.354;2022-09-02T04:26:22;2.68;;;2.19;;
74180;SDS011;62544;50.826;14.354;2022-09-02T04:30:24;2.68;;;2.19;;
74180;SDS011;62544;50.826;14.354;2022-09-02T04:34:26;2.99;;;2.46;;
74180;SDS011;62544;50.826;14.354;2022-09-02T04:38:28;2.99;;;2.46;;
74180;SDS011;62544;50.826;14.354;2022-09-02T04:42:30;2.99;;;2.46;;
74180;SDS011;62544;50.826;14.354;2022-09-02T04:46:32;3.66;;;3.26;;
74180;SDS011;62544;50.826;14.354;2022-09-02T04:50:35;3.66;;;3.26;;
74180;SDS011;62544;50.826;14.354;2022-09-02T04:54:36;4.84;;;3.99;;
74180;SDS011;62544;50.826;14.354;2022-09-02T04:58:39;4.84;;;3.99;;
74180;SDS011;62544;50.826;14.354;2022-09-02T05:02:40;5.05;;;4.51;;
74180;SDS011;62544;50.826;14.354;2022-09-02T05:06:42;5.05;;;4.51;;
74180;SDS011;62544;50.826;14.354;2022-09-02T05:10:44;5.05;;;4.51;;
74180;SDS011;62544;50.826;14.354;2022-09-02T05:14:46;6.70;;;5.11;;
74180;SDS011;62544;50.826;14.354;2022-09-02T05:18:48;6.70;;;5.11;;
74180;SDS011;62544;50.826;14.354;2022-09-02T05:22:50;14.77;;;6.56;;
74180;SDS011;62544;50.826;14.354;2022-09-02T05:26:52;14.77;;;6.56;;
74180;SDS011;62544;50.826;14.354;2022-09-02T05:30:54;14.77;;;6.56;;
74180;SDS011;62544;50.826;14.354;2022-09-02T05:34:56;0.82;;;0.68;;
74180;SDS011;62544;50.826;14.354;2022-09-02T05:38:58;0.82;;;0.68;;
74180;SDS011;62544;50.826;14.354;2022-09-02T05:43:00;1.32;;;0.49;;
74180;SDS011;62544;50.826;14.354;2022-09-02T05:47:02;1.32;;;0.49;;
74180;SDS011;62544;50.826;14.354;2022-09-02T05:51:04;1.32;;;0.49;;
74180;SDS011;62544;50.826;14.354;2022-09-02T05:55:06;1.63;;;0.75;;
74180;SDS011;62544;50.826;14.354;2022-09-02T05:59:08;1.63;;;0.75;;
74180;SDS011;62544;50.826;14.354;2022-09-02T06:03:10;1.64;;;0.90;;
74180;SDS011;62544;50.826;14.354;2022-09-02T06:07:12;1.64;;;0.90;;
74180;SDS011;62544;50.826;14.354;2022-09-02T06:11:14;1.64;;;0.90;;
74180;SDS011;62544;50.826;14.354;2022-09-02T06:15:16;2.62;;;1.09;;
74180;SDS011;62544;50.826;14.354;2022-09-02T06:19:18;2.62;;;1.09;;
74180;SDS011;62544;50.826;14.354;2022-09-02T06:23:20;5.85;;;1.39;;
74180;SDS011;62544;50.826;14.354;2022-09-02T06:27:22;5.85;;;1.39;;
74180;SDS011;62544;50.826;14.354;2022-09-02T06:31:24;5.85;;;1.39;;
74180;SDS011;62544;50.826;14.354;2022-09-02T06:35:26;11.04;;;6.70;;
74180;SDS011;62544;50.826;14.354;2022-09-02T06:39:28;11.04;;;6.70;;
74180;SDS011;62544;50.826;14.354;2022-09-02T06:43:30;3.51;;;1.14;;
74180;SDS011;62544;50.826;14.354;2022-09-02T06:47:32;3.51;;;1.14;;
74180;SDS011;62544;50.826;14.354;2022-09-02T06:51:35;3.51;;;1.14;;
74180;SDS011;62544;50.826;14.354;2022-09-02T06:55:37;2.57;;;1.14;;
74180;SDS011;62544;50.826;14.354;2022-09-02T06:59:38;2.57;;;1.14;;
74180;SDS011;62544;50.826;14.354;2022-09-02T07:03:40;1.63;;;0.96;;
74180;SDS011;62544;50.826;14.354;2022-09-02T07:07:42;1.63;;;0.96;;
74180;SDS011;62544;50.826;14.354;2022-09-02T07:11:44;1.63;;;0.96;;
74180;SDS011;62544;50.826;14.354;2022-09-02T07:15:46;3.22;;;0.85;;
74180;SDS011;62544;50.826;14.354;2022-09-02T07:19:48;3.22;;;0.85;;
74180;SDS011;62544;50.826;14.354;2022-09-02T07:23:50;3.12;;;1.23;;
74180;SDS011;62544;50.826;14.354;2022-09-02T07:27:52;3.12;;;1.23;;
74180;SDS011;62544;50.826;14.354;2022-09-02T07:31:54;3.12;;;1.23;;
74180;SDS011;62544;50.826;14.354;2022-09-02T07:35:56;2.45;;;1.04;;
74180;SDS011;62544;50.826;14.354;2022-09-02T07:39:58;2.45;;;1.04;;
74180;SDS011;62544;50.826;14.354;2022-09-02T07:44:00;1.41;;;0.66;;
74180;SDS011;62544;50.826;14.354;2022-09-02T07:48:02;1.41;;;0.66;;
74180;SDS011;62544;50.826;14.354;2022-09-02T07:52:04;1.41;;;0.66;;
74180;SDS011;62544;50.826;14.354;2022-09-02T07:56:06;1.37;;;0.98;;
74180;SDS011;62544;50.826;14.354;2022-09-02T08:00:08;1.37;;;0.98;;
74180;SDS011;62544;50.826;14.354;2022-09-02T08:04:10;2.77;;;0.99;;
74180;SDS011;62544;50.826;14.354;2022-09-02T08:08:14;2.77;;;0.99;;
74180;SDS011;62544;50.826;14.354;2022-09-02T08:12:14;2.77;;;0.99;;
74180;SDS011;62544;50.826;14.354;2022-09-02T08:16:16;1.38;;;0.49;;
74180;SDS011;62544;50.826;14.354;2022-09-02T08:20:18;1.38;;;0.49;;
74180;SDS011;62544;50.826;14.354;2022-09-02T08:24:20;2.28;;;0.50;;
74180;SDS011;62544;50.826;14.354;2022-09-02T08:28:22;2.28;;;0.50;;
74180;SDS011;62544;50.826;14.354;2022-09-02T08:32:24;2.28;;;0.50;;
74180;SDS011;62544;50.826;14.354;2022-09-02T08:36:26;0.99;;;0.59;;
74180;SDS011;62544;50.826;14.354;2022-09-02T08:40:35;0.99;;;0.59;;
74180;SDS011;62544;50.826;14.354;2022-09-02T08:44:30;1.89;;;0.60;;
74180;SDS011;62544;50.826;14.354;2022-09-02T08:48:39;1.89;;;0.60;;
74180;SDS011;62544;50.826;14.354;2022-09-02T08:52:38;2.08;;;0.30;;
74180;SDS011;62544;50.826;14.354;2022-09-02T08:56:36;2.08;;;0.30;;
74180;SDS011;62544;50.826;14.354;2022-09-02T09:00:38;2.08;;;0.30;;
74180;SDS011;62544;50.826;14.354;2022-09-02T09:08:55;1.49;;;0.40;;
74180;SDS011;62544;50.826;14.354;2022-09-02T09:20:48;2.88;;;0.50;;
74180;SDS011;62544;50.826;14.354;2022-09-02T09:24:50;0.69;;;0.30;;
74180;SDS011;62544;50.826;14.354;2022-09-02T09:28:52;0.69;;;0.30;;
74180;SDS011;62544;50.826;14.354;2022-09-02T09:32:58;1.18;;;0.59;;
74180;SDS011;62544;50.826;14.354;2022-09-02T09:36:56;1.18;;;0.59;;
74180;SDS011;62544;50.826;14.354;2022-09-02T09:41:14;1.18;;;0.59;;
74180;SDS011;62544;50.826;14.354;2022-09-02T09:45:13;4.79;;;0.68;;
74180;SDS011;62544;50.826;14.354;2022-09-02T09:49:02;4.79;;;0.68;;
74180;SDS011;62544;50.826;14.354;2022-09-02T09:57:15;1.75;;;0.49;;
74180;SDS011;62544;50.826;14.354;2022-09-02T10:01:11;1.75;;;0.49;;
74180;SDS011;62544;50.826;14.354;2022-09-02T10:05:15;3.51;;;1.85;;
74180;SDS011;62544;50.826;14.354;2022-09-02T10:13:19;2.55;;;1.47;;
74180;SDS011;62544;50.826;14.354;2022-09-02T10:21:30;2.55;;;1.47;;
74180;SDS011;62544;50.826;14.354;2022-09-02T10:25:28;1.49;;;0.40;;
74180;SDS011;62544;50.826;14.354;2022-09-02T10:33:27;0.50;;;0.30;;
74180;SDS011;62544;50.826;14.354;2022-09-02T10:37:32;0.50;;;0.30;;
74180;SDS011;62544;50.826;14.354;2022-09-02T10:49:36;1.30;;;0.60;;
74180;SDS011;62544;50.826;14.354;2022-09-02T10:53:41;3.49;;;0.50;;
74180;SDS011;62544;50.826;14.354;2022-09-02T10:57:41;3.49;;;0.50;;
74180;SDS011;62544;50.826;14.354;2022-09-02T11:05:46;2.59;;;0.40;;
74180;SDS011;62544;50.826;14.354;2022-09-02T11:09:43;2.59;;;0.40;;
74180;SDS011;62544;50.826;14.354;2022-09-02T11:21:59;1.80;;;0.50;;
74180;SDS011;62544;50.826;14.354;2022-09-02T11:30:08;1.00;;;0.50;;
74180;SDS011;62544;50.826;14.354;2022-09-02T11:34:06;1.90;;;0.50;;
74180;SDS011;62544;50.826;14.354;2022-09-02T11:38:02;1.90;;;0.50;;
74180;SDS011;62544;50.826;14.354;2022-09-02T11:42:02;1.90;;;0.50;;
74180;SDS011;62544;50.826;14.354;2022-09-02T11:54:04;2.58;;;0.60;;
74180;SDS011;62544;50.826;14.354;2022-09-02T11:58:06;2.58;;;0.60;;
74180;SDS011;62544;50.826;14.354;2022-09-02T12:02:09;2.58;;;0.60;;
74180;SDS011;62544;50.826;14.354;2022-09-02T12:06:11;3.19;;;1.00;;
74180;SDS011;62544;50.826;14.354;2022-09-02T12:10:44;3.19;;;1.00;;
74180;SDS011;62544;50.826;14.354;2022-09-02T12:18:26;0.70;;;0.50;;
74180;SDS011;62544;50.826;14.354;2022-09-02T12:22:23;0.70;;;0.50;;
74180;SDS011;62544;50.826;14.354;2022-09-02T12:27:01;0.70;;;0.50;;
74180;SDS011;62544;50.826;14.354;2022-09-02T12:38:30;1.00;;;0.50;;
74180;SDS011;62544;50.826;14.354;2022-09-02T12:42:29;1.00;;;0.50;;
74180;SDS011;62544;50.826;14.354;2022-09-02T12:58:54;3.79;;;0.80;;
74180;SDS011;62544;50.826;14.354;2022-09-02T13:14:57;2.39;;;0.80;;
74180;SDS011;62544;50.826;14.354;2022-09-02T13:27:00;2.29;;;0.50;;
74180;SDS011;62544;50.826;14.354;2022-09-02T13:34:55;2.69;;;0.70;;
74180;SDS011;62544;50.826;14.354;2022-09-02T13:39:08;2.69;;;0.70;;
74180;SDS011;62544;50.826;14.354;2022-09-02T13:42:59;2.99;;;0.70;;
74180;SDS011;62544;50.826;14.354;2022-09-02T13:47:03;2.99;;;0.70;;
74180;SDS011;62544;50.826;14.354;2022-09-02T13:51:11;2.99;;;0.70;;
74180;SDS011;62544;50.826;14.354;2022-09-02T13:55:04;3.48;;;0.70;;
74180;SDS011;62544;50.826;14.354;2022-09-02T13:59:06;3.48;;;0.70;;
74180;SDS011;62544;50.826;14.354;2022-09-02T14:03:09;5.78;;;0.60;;
74180;SDS011;62544;50.826;14.354;2022-09-02T14:07:11;5.78;;;0.60;;
74180;SDS011;62544;50.826;14.354;2022-09-02T14:11:15;5.78;;;0.60;;
74180;SDS011;62544;50.826;14.354;2022-09-02T14:15:15;4.87;;;0.60;;
74180;SDS011;62544;50.826;14.354;2022-09-02T14:23:18;1.89;;;0.70;;
74180;SDS011;62544;50.826;14.354;2022-09-02T14:27:20;1.89;;;0.70;;
74180;SDS011;62544;50.826;14.354;2022-09-02T14:31:25;1.89;;;0.70;;
74180;SDS011;62544;50.826;14.354;2022-09-02T14:35:24;1.99;;;1.10;;
74180;SDS011;62544;50.826;14.354;2022-09-02T14:39:26;1.99;;;1.10;;
74180;SDS011;62544;50.826;14.354;2022-09-02T14:43:29;0.80;;;0.40;;
74180;SDS011;62544;50.826;14.354;2022-09-02T14:47:30;0.80;;;0.40;;
74180;SDS011;62544;50.826;14.354;2022-09-02T14:51:44;0.80;;;0.40;;
74180;SDS011;62544;50.826;14.354;2022-09-02T14:59:36;3.79;;;0.80;;
74180;SDS011;62544;50.826;14.354;2022-09-02T15:03:38;1.60;;;0.60;;
74180;SDS011;62544;50.826;14.354;2022-09-02T15:07:40;1.60;;;0.60;;
74180;SDS011;62544;50.826;14.354;2022-09-02T15:11:49;1.60;;;0.60;;
74180;SDS011;62544;50.826;14.354;2022-09-02T15:15:44;2.10;;;0.60;;
74180;SDS011;62544;50.826;14.354;2022-09-02T15:19:46;2.10;;;0.60;;
74180;SDS011;62544;50.826;14.354;2022-09-02T15:23:48;1.99;;;1.10;;
74180;SDS011;62544;50.826;14.354;2022-09-02T15:27:50;1.99;;;1.10;;
74180;SDS011;62544;50.826;14.354;2022-09-02T15:31:52;1.99;;;1.10;;
74180;SDS011;62544;50.826;14.354;2022-09-02T15:35:54;3.39;;;0.90;;
74180;SDS011;62544;50.826;14.354;2022-09-02T15:39:56;3.39;;;0.90;;
74180;SDS011;62544;50.826;14.354;2022-09-02T15:43:58;2.39;;;0.80;;
74180;SDS011;62544;50.826;14.354;2022-09-02T15:48:00;2.39;;;0.80;;
74180;SDS011;62544;50.826;14.354;2022-09-02T15:52:02;2.39;;;0.80;;
74180;SDS011;62544;50.826;14.354;2022-09-02T15:56:04;1.89;;;0.60;;
74180;SDS011;62544;50.826;14.354;2022-09-02T16:00:06;1.89;;;0.60;;
74180;SDS011;62544;50.826;14.354;2022-09-02T16:04:08;1.10;;;0.50;;
74180;SDS011;62544;50.826;14.354;2022-09-02T16:08:10;1.10;;;0.50;;
74180;SDS011;62544;50.826;14.354;2022-09-02T16:12:12;1.10;;;0.50;;
74180;SDS011;62544;50.826;14.354;2022-09-02T16:16:14;3.29;;;0.90;;
74180;SDS011;62544;50.826;14.354;2022-09-02T16:20:17;3.29;;;0.90;;
74180;SDS011;62544;50.826;14.354;2022-09-02T16:24:18;2.09;;;0.80;;
74180;SDS011;62544;50.826;14.354;2022-09-02T16:28:20;2.09;;;0.80;;
74180;SDS011;62544;50.826;14.354;2022-09-02T16:32:22;2.09;;;0.80;;
74180;SDS011;62544;50.826;14.354;2022-09-02T16:36:24;2.38;;;0.60;;
74180;SDS011;62544;50.826;14.354;2022-09-02T16:40:26;2.38;;;0.60;;
74180;SDS011;62544;50.826;14.354;2022-09-02T16:44:28;1.69;;;0.70;;
74180;SDS011;62544;50.826;14.354;2022-09-02T16:48:30;1.69;;;0.70;;
74180;SDS011;62544;50.826;14.354;2022-09-02T16:52:32;1.69;;;0.70;;
74180;SDS011;62544;50.826;14.354;2022-09-02T16:56:34;3.36;;;1.58;;
74180;SDS011;62544;50.826;14.354;2022-09-02T17:00:42;3.36;;;1.58;;
74180;SDS011;62544;50.826;14.354;2022-09-02T17:04:38;3.56;;;0.99;;
74180;SDS011;62544;50.826;14.354;2022-09-02T17:08:40;3.56;;;0.99;;
74180;SDS011;62544;50.826;14.354;2022-09-02T17:12:42;3.56;;;0.99;;
74180;SDS011;62544;50.826;14.354;2022-09-02T17:16:45;3.63;;;0.69;;
74180;SDS011;62544;50.826;14.354;2022-09-02T17:20:46;3.63;;;0.69;;
74180;SDS011;62544;50.826;14.354;2022-09-02T17:24:48;3.21;;;1.07;;
74180;SDS011;62544;50.826;14.354;2022-09-02T17:28:50;3.21;;;1.07;;
74180;SDS011;62544;50.826;14.354;2022-09-02T17:32:52;3.21;;;1.07;;
74180;SDS011;62544;50.826;14.354;2022-09-02T17:36:54;2.30;;;1.15;;
74180;SDS011;62544;50.826;14.354;2022-09-02T17:40:56;2.30;;;1.15;;
74180;SDS011;62544;50.826;14.354;2022-09-02T17:44:58;4.55;;;2.27;;
74180;SDS011;62544;50.826;14.354;2022-09-02T17:49:00;4.55;;;2.27;;
74180;SDS011;62544;50.826;14.354;2022-09-02T17:53:02;1.78;;;1.22;;
74180;SDS011;62544;50.826;14.354;2022-09-02T18:01:06;1.78;;;1.22;;
74180;SDS011;62544;50.826;14.354;2022-09-02T18:09:10;2.96;;;1.20;;
74180;SDS011;62544;50.826;14.354;2022-09-02T18:13:12;7.06;;;2.38;;
74180;SDS011;62544;50.826;14.354;2022-09-02T18:17:30;7.06;;;2.38;;
74180;SDS011;62544;50.826;14.354;2022-09-02T18:21:22;7.06;;;2.38;;
74180;SDS011;62544;50.826;14.354;2022-09-02T18:29:31;5.89;;;3.08;;
74180;SDS011;62544;50.826;14.354;2022-09-02T18:41:36;5.61;;;3.49;;
74180;SDS011;62544;50.826;14.354;2022-09-02T18:45:32;8.68;;;4.62;;
74180;SDS011;62544;50.826;14.354;2022-09-02T18:49:31;8.68;;;4.62;;
74180;SDS011;62544;50.826;14.354;2022-09-02T18:53:44;6.67;;;3.26;;
74180;SDS011;62544;50.826;14.354;2022-09-02T18:57:53;6.67;;;3.26;;
74180;SDS011;62544;50.826;14.354;2022-09-02T19:01:39;6.67;;;3.26;;
74180;SDS011;62544;50.826;14.354;2022-09-02T19:05:38;4.59;;;2.63;;
74180;SDS011;62544;50.826;14.354;2022-09-02T19:09:40;4.59;;;2.63;;
74180;SDS011;62544;50.826;14.354;2022-09-02T19:13:51;5.17;;;2.37;;
74180;SDS011;62544;50.826;14.354;2022-09-02T19:17:44;5.17;;;2.37;;
74180;SDS011;62544;50.826;14.354;2022-09-02T19:21:50;5.17;;;2.37;;
74180;SDS011;62544;50.826;14.354;2022-09-02T19:25:48;3.94;;;2.29;;
74180;SDS011;62544;50.826;14.354;2022-09-02T19:29:51;3.94;;;2.29;;
74180;SDS011;62544;50.826;14.354;2022-09-02T19:33:52;3.93;;;2.00;;
74180;SDS011;62544;50.826;14.354;2022-09-02T19:37:54;3.93;;;2.00;;
74180;SDS011;62544;50.826;14.354;2022-09-02T19:41:56;3.93;;;2.00;;
74180;SDS011;62544;50.826;14.354;2022-09-02T19:45:58;2.41;;;1.60;;
74180;SDS011;62544;50.826;14.354;2022-09-02T19:50:00;2.41;;;1.60;;
74180;SDS011;62544;50.826;14.354;2022-09-02T19:54:02;2.28;;;1.43;;
74180;SDS011;62544;50.826;14.354;2022-09-02T19:58:04;2.28;;;1.43;;
74180;SDS011;62544;50.826;14.354;2022-09-02T20:02:06;2.28;;;1.43;;
74180;SDS011;62544;50.826;14.354;2022-09-02T20:06:08;2.66;;;1.58;;
74180;SDS011;62544;50.826;14.354;2022-09-02T20:10:10;2.66;;;1.58;;
74180;SDS011;62544;50.826;14.354;2022-09-02T20:14:12;6.45;;;4.17;;
74180;SDS011;62544;50.826;14.354;2022-09-02T20:18:16;6.45;;;4.17;;
74180;SDS011;62544;50.826;14.354;2022-09-02T20:22:16;6.45;;;4.17;;
74180;SDS011;62544;50.826;14.354;2022-09-02T20:26:22;3.26;;;2.29;;
74180;SDS011;62544;50.826;14.354;2022-09-02T20:30:20;3.26;;;2.29;;
74180;SDS011;62544;50.826;14.354;2022-09-02T20:34:36;3.73;;;2.07;;
74180;SDS011;62544;50.826;14.354;2022-09-02T20:38:42;3.73;;;2.07;;
74180;SDS011;62544;50.826;14.354;2022-09-02T20:42:33;3.73;;;2.07;;
74180;SDS011;62544;50.826;14.354;2022-09-02T20:50:38;3.43;;;1.71;;
74180;SDS011;62544;50.826;14.354;2022-09-02T20:58:38;1.80;;;1.07;;
74180;SDS011;62544;50.826;14.354;2022-09-02T21:02:57;1.80;;;1.07;;
74180;SDS011;62544;50.826;14.354;2022-09-02T21:06:42;1.80;;;1.07;;
74180;SDS011;62544;50.826;14.354;2022-09-02T21:10:44;1.80;;;1.07;;
74180;SDS011;62544;50.826;14.354;2022-09-02T21:14:46;2.36;;;1.50;;
74180;SDS011;62544;50.826;14.354;2022-09-02T21:22:47;2.36;;;1.50;;
74180;SDS011;62544;50.826;14.354;2022-09-02T21:30:53;1.18;;;0.96;;
74180;SDS011;62544;50.826;14.354;2022-09-02T21:34:56;2.15;;;1.24;;
74180;SDS011;62544;50.826;14.354;2022-09-02T21:38:55;2.15;;;1.24;;
74180;SDS011;62544;50.826;14.354;2022-09-02T21:47:02;4.35;;;1.25;;
74180;SDS011;62544;50.826;14.354;2022-09-02T21:51:01;4.35;;;1.25;;
74180;SDS011;62544;50.826;14.354;2022-09-02T22:03:12;2.43;;;1.00;;
74180;SDS011;62544;50.826;14.354;2022-09-02T22:07:10;2.43;;;1.00;;
74180;SDS011;62544;50.826;14.354;2022-09-02T22:19:14;1.96;;;0.90;;
74180;SDS011;62544;50.826;14.354;2022-09-02T22:23:22;2.56;;;1.28;;
74180;SDS011;62544;50.826;14.354;2022-09-02T22:27:25;2.56;;;1.28;;
74180;SDS011;62544;50.826;14.354;2022-09-02T22:31:21;2.56;;;1.28;;
74180;SDS011;62544;50.826;14.354;2022-09-02T22:39:31;2.08;;;1.01;;
74180;SDS011;62544;50.826;14.354;2022-09-02T22:43:32;2.26;;;1.47;;
74180;SDS011;62544;50.826;14.354;2022-09-02T22:47:28;2.26;;;1.47;;
74180;SDS011;62544;50.826;14.354;2022-09-02T22:51:35;2.26;;;1.47;;
74180;SDS011;62544;50.826;14.354;2022-09-02T22:59:40;5.07;;;2.66;;
74180;SDS011;62544;50.826;14.354;2022-09-02T23:03:40;2.27;;;1.26;;
74180;SDS011;62544;50.826;14.354;2022-09-02T23:07:39;2.27;;;1.26;;
74180;SDS011;62544;50.826;14.354;2022-09-02T23:11:54;2.27;;;1.26;;
74180;SDS011;62544;50.826;14.354;2022-09-02T23:15:45;1.29;;;1.00;;
74180;SDS011;62544;50.826;14.354;2022-09-02T23:23:54;2.14;;;0.89;;
74180;SDS011;62544;50.826;14.354;2022-09-02T23:27:54;2.14;;;0.89;;
74180;SDS011;62544;50.826;14.354;2022-09-02T23:36:00;1.95;;;1.16;;
74180;SDS011;62544;50.826;14.354;2022-09-02T23:40:02;1.95;;;1.16;;
74180;SDS011;62544;50.826;14.354;2022-09-02T23:43:57;1.19;;;0.78;;
74180;SDS011;62544;50.826;14.354;2022-09-02T23:56:08;1.21;;;0.90;;
